Palmerton, Pennsylvania
Current Conditions -  °F | °C
As of 6:51 PM on Friday 24 Oct 2014 (Local Time) from KABE Reporting Station
Clear Clear  
Wind Chill: 61°   Ceiling: Unl
Heat Index: 61°   Visibility: 10mi
Dew Point: 42°   Wind: 5mph
Humidity: 50%   Direction: 330°NNW
Pressure: 29.84"   Gusts: NA
Location:  40.8°N, 75.62°W
Report Text: KABE 242251Z 33004KT 10SM CLR 16/06 A2984 RMK AO2 SLP104 T01610056
Loading
Personal Weather Stations






























Interactive Weather Map
Tropical Storm Tracking
New forecast layout! Learn more

10-Day Weather Forecast

Advertisements
Track Severe Weather on mobile